Time;durP1;ratioP1;P1;durP2;ratioP2;P2;SDS_P1;SDS_P2;PMS_P1;PMS_P2;Temp;Humidity;BMP_temperature;BMP_pressure;BME280_temperature;BME280_humidity;BME280_pressure;Samples;Min_cycle;Max_cycle;Signal;HPM_P1;HPM_P2
2023/07/19 00:00:06;;;;;;;;;;;;;;;23.10;50.52;101387.38;5053008;28;19931;-72
2023/07/19 00:02:31;;;;;;;;;;;;;;;23.10;50.51;101385.50;5052212;28;19972;-72
2023/07/19 00:04:56;;;;;;;;;;;;;;;23.10;50.28;101390.91;5050530;28;19924;-71
2023/07/19 00:07:21;;;;;;;;;;;;;;;23.11;50.59;101391.78;5051738;28;19921;-71
2023/07/19 00:09:47;;;;;;;;;;;;;;;23.09;50.20;101380.25;5034537;28;20476;-71
2023/07/19 00:12:12;;;;;;;;;;;;;;;23.09;50.22;101381.09;5049511;28;19921;-72
2023/07/19 00:14:37;;;;;;;;;;;;;;;23.09;50.53;101383.81;5050602;28;19952;-72
2023/07/19 00:17:02;;;;;;;;;;;;;;;23.09;50.22;101374.84;5052239;28;19928;-72
2023/07/19 00:19:28;;;;;;;;;;;;;;;23.08;50.59;101376.72;5047876;28;19932;-72
2023/07/19 00:21:53;;;;;;;;;;;;;;;23.08;50.44;101373.16;5067381;28;20004;-72
2023/07/19 00:24:18;;;;;;;;;;;;;;;23.07;50.22;101364.19;5085646;28;19932;-71
2023/07/19 00:26:45;;;;;;;;;;;;;;;23.08;50.34;101359.59;5034767;28;19917;-71
2023/07/19 00:29:10;;;;;;;;;;;;;;;23.07;50.16;101356.06;5048540;28;19948;-72
2023/07/19 00:31:35;;;;;;;;;;;;;;;23.07;50.38;101356.06;5049922;28;19917;-72
2023/07/19 00:34:01;;;;;;;;;;;;;;;23.07;50.23;101347.06;5051679;28;19941;-71
2023/07/19 00:36:26;;;;;;;;;;;;;;;23.08;50.57;101349.59;5050347;28;19986;-72
2023/07/19 00:38:51;;;;;;;;;;;;;;;23.07;50.39;101347.91;5081740;28;20387;-71
2023/07/19 00:41:18;;;;;;;;;;;;;;;23.08;50.27;101351.47;5049025;28;20663;-71
2023/07/19 00:43:43;;;;;;;;;;;;;;;23.07;50.13;101347.91;5063789;28;19921;-71
2023/07/19 00:46:08;;;;;;;;;;;;;;;23.07;50.36;101341.66;5049124;28;19942;-72
2023/07/19 00:48:33;;;;;;;;;;;;;;;23.07;50.28;101341.66;5050667;28;20385;-72
2023/07/19 00:50:59;;;;;;;;;;;;;;;23.06;50.21;101340.78;5052397;28;19917;-71
2023/07/19 00:53:24;;;;;;;;;;;;;;;23.07;50.17;101336.22;5049747;28;19921;-71
2023/07/19 00:55:50;;;;;;;;;;;;;;;23.05;50.22;101336.38;5053090;28;19920;-72
2023/07/19 00:58:15;;;;;;;;;;;;;;;23.06;50.14;101338.06;5050832;28;19956;-72
2023/07/19 01:00:41;;;;;;;;;;;;;;;23.06;50.16;101339.94;5079310;28;21282;-71
2023/07/19 01:03:06;;;;;;;;;;;;;;;23.05;50.19;101332.84;5080225;28;19924;-72
2023/07/19 01:05:31;;;;;;;;;;;;;;;23.05;50.41;101332.84;5053705;28;20381;-72
2023/07/19 01:07:58;;;;;;;;;;;;;;;23.06;50.11;101334.50;5049166;28;21161;-72
2023/07/19 01:10:23;;;;;;;;;;;;;;;23.05;50.41;101333.69;5046717;28;19917;-71
2023/07/19 01:13:04;;;;;;;;;;;;;;;23.04;50.13;101326.56;5047391;28;20063;-72
2023/07/19 01:15:30;;;;;;;;;;;;;;;23.04;50.31;101332.00;5049921;28;19943;-72
2023/07/19 01:17:55;;;;;;;;;;;;;;;23.04;50.05;101329.28;5049821;28;19924;-71
2023/07/19 01:20:20;;;;;;;;;;;;;;;23.04;50.22;101329.28;5048914;28;20008;-71
2023/07/19 01:22:46;;;;;;;;;;;;;;;23.03;50.11;101335.75;5052987;28;19913;-72
2023/07/19 01:25:11;;;;;;;;;;;;;;;23.03;50.12;101327.63;5035817;28;19918;-71
2023/07/19 01:27:36;;;;;;;;;;;;;;;23.03;50.23;101322.19;5049540;28;19917;-72
2023/07/19 01:30:02;;;;;;;;;;;;;;;23.04;50.04;101317.59;5049935;28;19917;-72
2023/07/19 01:32:27;;;;;;;;;;;;;;;23.03;50.06;101324.91;5052697;28;19985;-71
2023/07/19 01:34:52;;;;;;;;;;;;;;;23.02;50.27;101322.34;5048120;28;19913;-71
2023/07/19 01:37:18;;;;;;;;;;;;;;;23.02;49.89;101315.06;5048161;28;19964;-72
2023/07/19 01:39:43;;;;;;;;;;;;;;;23.02;49.95;101317.78;5051783;28;19917;-72
2023/07/19 01:42:08;;;;;;;;;;;;;;;23.02;49.93;101316.94;5078007;28;20015;-71
2023/07/19 01:44:33;;;;;;;;;;;;;;;23.01;50.02;101318.81;5050742;28;19967;-72
2023/07/19 01:46:59;;;;;;;;;;;;;;;23.01;50.07;101310.66;5031490;28;19924;-72
2023/07/19 01:49:24;;;;;;;;;;;;;;;23.01;50.09;101318.81;5032656;28;19975;-71
2023/07/19 01:51:49;;;;;;;;;;;;;;;23.00;50.11;101317.13;5038822;28;19927;-71
2023/07/19 01:54:14;;;;;;;;;;;;;;;23.01;50.20;101312.53;5080352;28;20058;-72
2023/07/19 01:56:39;;;;;;;;;;;;;;;23.00;49.97;101313.56;5050845;28;19959;-71
2023/07/19 01:59:05;;;;;;;;;;;;;;;23.00;50.04;101316.28;5082316;28;19917;-71
2023/07/19 02:01:30;;;;;;;;;;;;;;;23.00;50.19;101313.56;5047543;28;19917;-71
2023/07/19 02:03:55;;;;;;;;;;;;;;;22.99;50.26;101309.19;5049782;28;19932;-71
2023/07/19 02:06:20;;;;;;;;;;;;;;;22.99;50.02;101320.03;5050016;28;19932;-72
2023/07/19 02:08:45;;;;;;;;;;;;;;;22.98;50.26;101307.47;5044915;28;19928;-71
2023/07/19 02:11:11;;;;;;;;;;;;;;;22.98;49.98;101304.78;5052210;28;19917;-72
2023/07/19 02:13:36;;;;;;;;;;;;;;;22.98;49.86;101307.47;5048280;28;19943;-71
2023/07/19 02:16:01;;;;;;;;;;;;;;;22.97;49.96;101303.94;5079440;28;19913;-72
2023/07/19 02:18:27;;;;;;;;;;;;;;;22.97;49.86;101303.94;5050996;28;19925;-72
2023/07/19 02:20:53;;;;;;;;;;;;;;;22.95;50.29;101295.16;5048965;28;19917;-71
2023/07/19 02:23:19;;;;;;;;;;;;;;;22.50;50.04;101226.47;5047829;28;19913;-72
2023/07/19 02:25:47;;;;;;;;;;;;;;;22.95;50.21;101298.72;5048492;28;19917;-71
2023/07/19 02:28:12;;;;;;;;;;;;;;;22.94;49.78;101294.31;5051144;28;19921;-72
2023/07/19 02:30:44;;;;;;;;;;;;;;;22.94;50.11;101293.47;5046164;28;19971;-71
2023/07/19 02:33:12;;;;;;;;;;;;;;;22.93;49.76;101298.03;5075631;28;19917;-71
2023/07/19 02:35:38;;;;;;;;;;;;;;;22.94;49.91;101288.06;5045616;28;19928;-72
2023/07/19 02:38:03;;;;;;;;;;;;;;;22.93;49.92;101289.91;5050760;28;19917;-72
2023/07/19 02:40:28;;;;;;;;;;;;;;;22.93;49.98;101298.03;5046607;28;19921;-72
2023/07/19 02:42:53;;;;;;;;;;;;;;;22.92;49.86;101296.34;5063484;28;19917;-72
2023/07/19 02:45:18;;;;;;;;;;;;;;;22.90;49.84;101303.84;5050649;28;19963;-72
2023/07/19 02:47:44;;;;;;;;;;;;;;;22.90;50.12;101305.72;5080236;28;19921;-71
2023/07/19 02:50:09;;;;;;;;;;;;;;;22.88;50.06;101300.44;5052385;28;19917;-72
2023/07/19 02:52:34;;;;;;;;;;;;;;;22.87;50.19;101298.75;5051285;28;19963;-71
2023/07/19 02:55:00;;;;;;;;;;;;;;;22.86;50.21;101294.38;5051501;28;20261;-71
2023/07/19 02:57:25;;;;;;;;;;;;;;;22.86;50.02;101301.66;5047819;28;19916;-72
2023/07/19 02:59:50;;;;;;;;;;;;;;;22.85;50.02;101303.53;5083774;28;19952;-71
2023/07/19 03:02:15;;;;;;;;;;;;;;;22.85;49.77;101299.97;5046042;28;19917;-72
2023/07/19 03:04:41;;;;;;;;;;;;;;;22.85;50.08;101299.97;5062112;28;19917;-71
2023/07/19 03:07:07;;;;;;;;;;;;;;;22.83;50.13;101294.72;5050597;28;19921;-71
2023/07/19 03:09:32;;;;;;;;;;;;;;;22.84;50.02;101295.56;5045759;28;19924;-72
2023/07/19 03:11:57;;;;;;;;;;;;;;;22.83;50.04;101302.03;5066002;28;19937;-71
2023/07/19 03:14:23;;;;;;;;;;;;;;;22.82;49.97;101298.47;5054910;28;20320;-72
2023/07/19 03:16:48;;;;;;;;;;;;;;;22.82;50.05;101305.78;5051356;28;20357;-71
2023/07/19 03:19:13;;;;;;;;;;;;;;;22.81;49.86;101301.34;5058393;28;19955;-71
2023/07/19 03:21:38;;;;;;;;;;;;;;;22.81;49.99;101304.06;5052468;28;19924;-71
2023/07/19 03:24:03;;;;;;;;;;;;;;;22.81;49.96;101310.34;5050931;28;19917;-71
2023/07/19 03:26:29;;;;;;;;;;;;;;;22.80;49.94;101310.53;5054646;28;19924;-71
2023/07/19 03:28:54;;;;;;;;;;;;;;;22.79;50.09;101308.84;5049302;28;19921;-71
2023/07/19 03:31:19;;;;;;;;;;;;;;;22.79;49.94;101316.97;5065586;28;19952;-72
2023/07/19 03:33:44;;;;;;;;;;;;;;;22.80;49.80;101318.66;5071274;28;19921;-71
2023/07/19 03:36:09;;;;;;;;;;;;;;;22.79;49.97;101316.97;5047584;28;20015;-71
2023/07/19 03:38:35;;;;;;;;;;;;;;;22.78;49.92;101313.44;5052886;28;19921;-72
2023/07/19 03:41:03;;;;;;;;;;;;;;;22.78;50.01;101310.72;5053178;28;19921;-71
2023/07/19 03:43:28;;;;;;;;;;;;;;;22.78;49.89;101310.72;5053192;28;19917;-72
2023/07/19 03:45:54;;;;;;;;;;;;;;;22.78;49.93;101307.16;5051896;28;20052;-72
2023/07/19 03:48:19;;;;;;;;;;;;;;;22.77;49.75;101311.75;5053392;28;19929;-71
2023/07/19 03:50:44;;;;;;;;;;;;;;;22.77;50.05;101310.88;5056535;28;19950;-72
2023/07/19 03:53:09;;;;;;;;;;;;;;;22.77;49.82;101314.47;5055011;28;19924;-72
2023/07/19 03:55:34;;;;;;;;;;;;;;;22.77;49.90;101313.59;5037540;28;19928;-72
2023/07/19 03:58:00;;;;;;;;;;;;;;;22.76;49.92;101314.63;5048669;28;19917;-72
2023/07/19 04:00:25;;;;;;;;;;;;;;;22.75;49.86;101319.22;5053258;28;19980;-72
2023/07/19 04:02:50;;;;;;;;;;;;;;;22.75;49.86;101316.50;5049253;28;19992;-71
2023/07/19 04:05:16;;;;;;;;;;;;;;;22.75;49.90;101327.34;5049720;28;19917;-72
2023/07/19 04:07:41;;;;;;;;;;;;;;;22.75;50.00;101331.94;5049686;28;19923;-72
2023/07/19 04:10:06;;;;;;;;;;;;;;;22.75;49.78;101323.78;5049042;28;20980;-71
2023/07/19 04:12:31;;;;;;;;;;;;;;;22.75;50.18;101324.63;5053142;28;20341;-72
2023/07/19 04:14:57;;;;;;;;;;;;;;;22.73;50.08;101313.16;5054045;28;19921;-71
2023/07/19 04:17:22;;;;;;;;;;;;;;;22.74;49.93;101313.97;5084345;28;19924;-72
2023/07/19 04:19:47;;;;;;;;;;;;;;;22.74;49.89;101320.25;5053302;28;19924;-72
2023/07/19 04:22:13;;;;;;;;;;;;;;;22.73;50.01;101320.44;5052050;28;19928;-71
2023/07/19 04:24:40;;;;;;;;;;;;;;;22.73;49.99;101318.56;5052628;28;20297;-72
2023/07/19 04:27:05;;;;;;;;;;;;;;;22.73;49.96;101317.72;5053260;28;19943;-71
2023/07/19 04:29:30;;;;;;;;;;;;;;;22.71;49.92;101310.59;5051602;28;19946;-70
2023/07/19 04:31:55;;;;;;;;;;;;;;;22.72;50.11;101297.88;5062200;28;20340;-71
2023/07/19 04:34:21;;;;;;;;;;;;;;;22.72;49.85;101303.31;5048799;28;19927;-71
2023/07/19 04:36:46;;;;;;;;;;;;;;;22.71;49.74;101299.75;5046661;28;19977;-71
2023/07/19 04:39:11;;;;;;;;;;;;;;;22.71;49.97;101298.91;5035108;28;19917;-70
2023/07/19 04:41:36;;;;;;;;;;;;;;;22.71;50.12;101296.22;5050564;28;19921;-71
2023/07/19 04:44:01;;;;;;;;;;;;;;;22.71;49.92;101296.22;5048084;28;19917;-72
2023/07/19 04:46:27;;;;;;;;;;;;;;;22.71;50.04;101302.47;5052144;28;19920;-71
2023/07/19 04:48:52;;;;;;;;;;;;;;;22.71;49.85;101305.19;5082499;28;20413;-71
2023/07/19 04:51:17;;;;;;;;;;;;;;;22.72;49.95;101308.72;5050696;28;19925;-72
2023/07/19 04:53:42;;;;;;;;;;;;;;;22.73;49.93;101306.88;5051084;28;20344;-74
2023/07/19 04:56:08;;;;;;;;;;;;;;;22.72;50.26;101306.00;5049872;28;20827;-72
2023/07/19 04:58:33;;;;;;;;;;;;;;;22.74;50.13;101308.56;5046148;28;19928;-74
2023/07/19 05:01:03;;;;;;;;;;;;;;;22.74;50.21;101303.97;5063713;28;19927;-73
2023/07/19 05:03:29;;;;;;;;;;;;;;;22.75;50.43;101311.06;5047410;28;19917;-74
2023/07/19 05:05:54;;;;;;;;;;;;;;;22.75;50.36;101311.06;5079544;28;19921;-73
2023/07/19 05:08:19;;;;;;;;;;;;;;;22.76;50.50;101310.03;5051147;28;19928;-75
2023/07/19 05:10:44;;;;;;;;;;;;;;;22.76;50.32;101312.75;5050058;28;19924;-73
2023/07/19 05:13:09;;;;;;;;;;;;;;;22.78;50.51;101312.59;5051542;28;20411;-72
2023/07/19 05:15:35;;;;;;;;;;;;;;;22.77;50.57;101314.47;5052947;28;19924;-73
2023/07/19 05:18:00;;;;;;;;;;;;;;;22.77;50.66;101322.59;5051433;28;19928;-73
2023/07/19 05:20:26;;;;;;;;;;;;;;;22.78;50.87;101323.44;5049685;28;19950;-72
2023/07/19 05:22:51;;;;;;;;;;;;;;;22.78;50.84;101331.56;5052462;28;19928;-72
2023/07/19 05:25:16;;;;;;;;;;;;;;;22.78;50.69;101312.59;5049743;28;19917;-74
2023/07/19 05:27:42;;;;;;;;;;;;;;;22.78;50.87;101318.84;5079806;28;19960;-71
2023/07/19 05:30:07;;;;;;;;;;;;;;;22.78;50.97;101313.44;5048177;28;19944;-72
2023/07/19 05:32:32;;;;;;;;;;;;;;;22.79;50.90;101311.56;5049369;28;19925;-73
2023/07/19 05:34:58;;;;;;;;;;;;;;;22.78;50.84;101318.84;5087936;28;19975;-72
2023/07/19 05:37:23;;;;;;;;;;;;;;;22.78;50.95;101316.13;5034262;28;19916;-73
2023/07/19 05:39:50;;;;;;;;;;;;;;;22.78;51.08;101312.59;5068597;28;19920;-70
2023/07/19 05:42:15;;;;;;;;;;;;;;;22.78;50.72;101315.31;5052174;28;19944;-70
2023/07/19 05:44:40;;;;;;;;;;;;;;;22.78;50.81;101308.00;5053183;28;19967;-71
2023/07/19 05:47:05;;;;;;;;;;;;;;;22.78;50.93;101309.88;5050354;28;19917;-71
2023/07/19 05:49:30;;;;;;;;;;;;;;;22.78;50.93;101318.00;5051641;28;19920;-69
2023/07/19 05:51:56;;;;;;;;;;;;;;;22.77;51.12;101325.31;5048077;28;19927;-71
2023/07/19 05:54:21;;;;;;;;;;;;;;;22.77;51.09;101319.88;5083754;28;19917;-71
2023/07/19 05:56:49;;;;;;;;;;;;;;;22.77;50.80;101324.44;5051248;28;19924;-71
2023/07/19 05:59:14;;;;;;;;;;;;;;;22.78;51.09;101323.44;5080914;28;19913;-71
2023/07/19 06:01:39;;;;;;;;;;;;;;;22.77;50.94;101325.31;5050575;28;19924;-71
2023/07/19 06:04:05;;;;;;;;;;;;;;;22.77;51.11;101324.44;5049904;28;19913;-71
2023/07/19 06:06:33;;;;;;;;;;;;;;;22.77;50.73;101313.59;5052653;28;19932;-70
2023/07/19 06:08:59;;;;;;;;;;;;;;;22.77;51.02;101310.88;5051717;28;19948;-71
2023/07/19 06:11:24;;;;;;;;;;;;;;;22.77;51.15;101313.59;5050647;28;19913;-72
2023/07/19 06:13:50;;;;;;;;;;;;;;;22.75;50.89;101311.06;5076582;28;19940;-71
2023/07/19 06:16:15;;;;;;;;;;;;;;;22.77;51.04;101313.59;5052557;28;19917;-71
2023/07/19 06:18:40;;;;;;;;;;;;;;;22.77;50.96;101319.00;5050832;28;20413;-71
2023/07/19 06:21:05;;;;;;;;;;;;;;;22.77;50.88;101319.88;5049475;28;19917;-71
2023/07/19 06:23:30;;;;;;;;;;;;;;;22.77;51.04;101319.00;5051582;28;19913;-72
2023/07/19 06:25:56;;;;;;;;;;;;;;;22.77;51.22;101324.44;5046594;28;19919;-72
2023/07/19 06:28:21;;;;;;;;;;;;;;;22.77;51.07;101319.00;5082501;28;19921;-72
2023/07/19 06:30:46;;;;;;;;;;;;;;;22.76;50.98;101315.47;5059973;28;19921;-72
2023/07/19 06:33:11;;;;;;;;;;;;;;;22.77;51.38;101316.31;5049070;28;19935;-71
2023/07/19 06:35:37;;;;;;;;;;;;;;;22.77;51.04;101319.88;5034323;28;19947;-73
2023/07/19 06:38:02;;;;;;;;;;;;;;;22.77;51.09;101311.75;5083067;28;19920;-76
2023/07/19 06:40:27;;;;;;;;;;;;;;;22.77;51.34;101308.16;5049960;28;19921;-75
2023/07/19 06:42:52;;;;;;;;;;;;;;;22.77;51.01;101317.16;5051975;28;20011;-75
2023/07/19 06:45:18;;;;;;;;;;;;;;;22.78;51.06;101309.88;5045805;28;19934;-75
2023/07/19 06:47:43;;;;;;;;;;;;;;;22.77;51.07;101303.63;5080807;28;19917;-74
2023/07/19 06:50:09;;;;;;;;;;;;;;;22.78;51.22;101307.16;5048670;28;19919;-71
2023/07/19 06:52:34;;;;;;;;;;;;;;;22.78;51.02;101310.72;5030241;28;19943;-70
2023/07/19 06:54:59;;;;;;;;;;;;;;;22.80;51.34;101310.53;5049067;28;19916;-70
2023/07/19 06:57:24;;;;;;;;;;;;;;;22.79;51.28;101314.25;5050946;28;19917;-70
2023/07/19 06:59:49;;;;;;;;;;;;;;;22.78;51.38;101313.44;5077630;28;19940;-70
2023/07/19 07:02:20;;;;;;;;;;;;;;;22.79;51.08;101315.09;5050360;28;19909;-70
2023/07/19 07:04:46;;;;;;;;;;;;;;;22.79;51.22;101306.97;5079925;28;19921;-70
2023/07/19 07:07:11;;;;;;;;;;;;;;;22.80;51.12;101310.53;5049629;28;19919;-70
2023/07/19 07:09:37;;;;;;;;;;;;;;;22.79;50.83;101317.81;5048100;28;19957;-71
2023/07/19 07:12:03;;;;;;;;;;;;;;;22.80;51.17;101324.06;5050183;28;19920;-70
2023/07/19 07:14:31;;;;;;;;;;;;;;;22.79;50.92;101323.25;5048151;28;19913;-70
2023/07/19 07:16:56;;;;;;;;;;;;;;;22.80;50.86;101326.78;5049694;28;20440;-70
2023/07/19 07:19:21;;;;;;;;;;;;;;;22.79;50.90;101328.66;5049446;28;19921;-70
2023/07/19 07:21:46;;;;;;;;;;;;;;;22.80;50.93;101335.75;5046964;28;20317;-70
2023/07/19 07:24:11;;;;;;;;;;;;;;;22.80;50.76;101334.91;5050165;28;19917;-70
2023/07/19 07:26:37;;;;;;;;;;;;;;;22.80;50.67;101330.34;5046722;28;19977;-70
2023/07/19 07:29:03;;;;;;;;;;;;;;;22.81;50.86;101331.19;5066515;28;20434;-70
2023/07/19 07:31:29;;;;;;;;;;;;;;;22.80;50.70;101321.38;5028903;28;19923;-70
2023/07/19 07:33:54;;;;;;;;;;;;;;;22.79;50.58;101323.25;5049010;28;19921;-70
2023/07/19 07:36:19;;;;;;;;;;;;;;;22.80;50.77;101324.06;5049460;28;19938;-70
2023/07/19 07:38:44;;;;;;;;;;;;;;;22.79;50.52;101306.97;5049604;28;19917;-70
2023/07/19 07:41:11;;;;;;;;;;;;;;;22.81;50.57;101317.63;5079578;28;19977;-70
2023/07/19 07:43:37;;;;;;;;;;;;;;;22.81;50.54;101313.06;5049298;28;19924;-70
2023/07/19 07:46:02;;;;;;;;;;;;;;;22.80;50.40;101319.50;5050496;28;19921;-70
2023/07/19 07:48:28;;;;;;;;;;;;;;;22.81;50.76;101314.91;5047466;28;19935;-70
2023/07/19 07:50:53;;;;;;;;;;;;;;;22.82;50.56;101313.91;5043978;28;19921;-70
2023/07/19 07:53:18;;;;;;;;;;;;;;;22.82;50.57;101319.34;5046232;28;19948;-70
2023/07/19 07:55:44;;;;;;;;;;;;;;;22.82;50.30;101322.03;5029565;28;20399;-70
2023/07/19 07:58:10;;;;;;;;;;;;;;;22.82;50.63;101314.75;5082912;28;19917;-71
2023/07/19 08:00:35;;;;;;;;;;;;;;;22.82;50.66;101305.78;5049498;28;19960;-71
2023/07/19 08:03:00;;;;;;;;;;;;;;;22.82;50.57;101306.59;5053400;28;19928;-70
2023/07/19 08:05:27;;;;;;;;;;;;;;;22.82;50.54;101305.78;5051268;28;20535;-70
2023/07/19 08:07:52;;;;;;;;;;;;;;;22.83;50.57;101302.03;5053772;28;19918;-70
2023/07/19 08:10:17;;;;;;;;;;;;;;;22.82;50.35;101300.34;5083224;28;20016;-70
2023/07/19 08:12:42;;;;;;;;;;;;;;;22.82;50.43;101293.06;5054977;28;19923;-70
2023/07/19 08:15:08;;;;;;;;;;;;;;;22.82;50.57;101303.06;5049560;28;19969;-70
2023/07/19 08:17:33;;;;;;;;;;;;;;;22.83;50.61;101289.31;5082480;28;19939;-70
2023/07/19 08:19:58;;;;;;;;;;;;;;;22.83;50.43;101292.03;5047538;28;19932;-70
2023/07/19 08:22:24;;;;;;;;;;;;;;;22.83;50.49;101300.16;5052268;28;19936;-71
2023/07/19 08:24:49;;;;;;;;;;;;;;;22.84;50.44;101284.72;5052651;28;19917;-70
2023/07/19 08:27:15;;;;;;;;;;;;;;;22.84;50.42;101284.72;5047662;28;19939;-70
2023/07/19 08:29:40;;;;;;;;;;;;;;;22.83;50.53;101283.88;5051817;28;19921;-70
2023/07/19 08:32:05;;;;;;;;;;;;;;;22.85;50.43;101286.41;5051761;28;19917;-71
2023/07/19 08:34:30;;;;;;;;;;;;;;;22.84;50.35;101285.56;5060735;28;19932;-71
2023/07/19 08:36:56;;;;;;;;;;;;;;;22.84;50.47;101282.84;5049551;28;19917;-71
2023/07/19 08:39:23;;;;;;;;;;;;;;;22.84;50.24;101280.13;5052417;28;19962;-70
2023/07/19 08:41:48;;;;;;;;;;;;;;;22.85;50.23;101283.69;5049047;28;19952;-70
2023/07/19 08:44:13;;;;;;;;;;;;;;;22.85;50.61;101279.13;5065942;28;19928;-70
2023/07/19 08:46:40;;;;;;;;;;;;;;;22.85;50.36;101283.69;5049395;28;19921;-71
2023/07/19 08:49:06;;;;;;;;;;;;;;;22.86;50.35;101285.41;5080185;28;19948;-71
2023/07/19 08:51:32;;;;;;;;;;;;;;;22.86;50.47;101277.25;5050909;28;19943;-71
2023/07/19 08:53:57;;;;;;;;;;;;;;;22.86;50.43;101277.25;5049543;28;20349;-70
2023/07/19 08:56:22;;;;;;;;;;;;;;;22.86;50.45;101272.69;5049952;28;19921;-71
2023/07/19 08:58:47;;;;;;;;;;;;;;;22.88;50.21;101277.91;5053292;28;19925;-70
2023/07/19 09:01:13;;;;;;;;;;;;;;;22.87;50.34;101274.34;5049244;28;19924;-71
2023/07/19 09:03:38;;;;;;;;;;;;;;;22.88;50.42;101272.47;5052901;28;19917;-70
2023/07/19 09:06:03;;;;;;;;;;;;;;;22.88;50.22;101277.91;5049632;28;19935;-71
2023/07/19 09:08:36;;;;;;;;;;;;;;;22.88;50.26;101275.19;5052065;28;19976;-71
2023/07/19 09:11:01;;;;;;;;;;;;;;;22.89;50.12;101277.72;5051128;28;19924;-71
2023/07/19 09:13:27;;;;;;;;;;;;;;;22.89;50.51;101275.00;5051067;28;19917;-71
2023/07/19 09:15:52;;;;;;;;;;;;;;;22.91;50.52;101280.28;5047200;28;19977;-70
2023/07/19 09:18:18;;;;;;;;;;;;;;;22.91;50.32;101281.13;5032672;28;19929;-71
2023/07/19 09:20:44;;;;;;;;;;;;;;;22.92;50.16;101271.13;5049824;28;19924;-71
2023/07/19 09:23:09;;;;;;;;;;;;;;;22.93;50.23;101280.94;5049687;28;19921;-70
2023/07/19 09:25:51;;;;;;;;;;;;;;;22.93;50.15;101281.75;5048258;28;19917;-71
2023/07/19 09:28:19;;;;;;;;;;;;;;;22.94;50.43;101275.34;5047086;28;19960;-73
2023/07/19 09:30:53;;;;;;;;;;;;;;;22.94;50.50;101272.63;5033429;28;20271;-72
2023/07/19 09:33:18;;;;;;;;;;;;;;;22.97;50.55;101276.81;5050158;28;19925;-72
2023/07/19 09:35:44;;;;;;;;;;;;;;;22.97;50.57;101270.56;5046625;28;19917;-72
2023/07/19 09:38:09;;;;;;;;;;;;;;;22.98;50.31;101275.81;5064346;28;19936;-72
2023/07/19 09:40:35;;;;;;;;;;;;;;;23.00;50.36;101278.31;5065418;28;19932;-72
2023/07/19 09:43:00;;;;;;;;;;;;;;;22.99;50.35;101266.63;5045178;28;19924;-73
2023/07/19 09:45:27;;;;;;;;;;;;;;;23.00;50.37;101268.31;5049490;28;19917;-73
2023/07/19 09:47:52;;;;;;;;;;;;;;;23.01;50.40;101263.72;5060897;28;19939;-72
2023/07/19 09:50:18;;;;;;;;;;;;;;;23.01;50.65;101271.88;5032711;28;19987;-72
2023/07/19 09:52:43;;;;;;;;;;;;;;;23.01;50.39;101270.00;5034630;28;20021;-76
2023/07/19 09:55:08;;;;;;;;;;;;;;;23.01;50.52;101272.69;5063894;28;19917;-74
2023/07/19 09:57:34;;;;;;;;;;;;;;;23.01;50.43;101275.41;5066220;28;19928;-74
2023/07/19 09:59:59;;;;;;;;;;;;;;;23.03;50.55;101267.09;5033295;28;19917;-75
2023/07/19 10:02:24;;;;;;;;;;;;;;;23.03;50.73;101269.81;5062798;28;20340;-76
2023/07/19 10:04:53;;;;;;;;;;;;;;;23.04;50.56;101263.38;5046433;28;19925;-73
2023/07/19 10:07:23;;;;;;;;;;;;;;;23.04;50.62;101272.34;5052584;28;19979;-76
2023/07/19 10:09:50;;;;;;;;;;;;;;;23.05;50.54;101274.00;5045674;28;19935;-75
2023/07/19 10:12:15;;;;;;;;;;;;;;;23.06;50.77;101270.25;5050588;28;19917;-74
2023/07/19 10:14:40;;;;;;;;;;;;;;;23.08;50.65;101270.94;5049627;28;19943;-72
2023/07/19 10:17:06;;;;;;;;;;;;;;;23.09;50.99;101269.06;5077294;28;19944;-72
2023/07/19 10:19:31;;;;;;;;;;;;;;;23.10;50.97;101270.72;5051575;28;19927;-73
2023/07/19 10:22:03;;;;;;;;;;;;;;;23.11;50.64;101273.28;5076916;28;19924;-76
2023/07/19 10:24:29;;;;;;;;;;;;;;;23.11;51.18;101267.84;5049065;28;20356;-76
2023/07/19 10:26:54;;;;;;;;;;;;;;;23.15;51.12;101268.28;5064776;28;19917;-73
2023/07/19 10:29:19;;;;;;;;;;;;;;;23.13;50.75;101267.66;5064335;28;20019;-72
2023/07/19 10:31:44;;;;;;;;;;;;;;;23.15;50.93;101271.88;5047582;28;19921;-77
2023/07/19 10:34:11;;;;;;;;;;;;;;;23.15;50.81;101269.16;5084717;28;19917;-77
2023/07/19 10:36:43;;;;;;;;;;;;;;;23.16;51.00;101272.72;5049321;28;19924;-77
2023/07/19 10:39:09;;;;;;;;;;;;;;;23.16;51.06;101278.97;5048237;28;19917;-78
2023/07/19 10:41:34;;;;;;;;;;;;;;;23.17;50.83;101277.94;5045354;28;19933;-77
2023/07/19 10:44:00;;;;;;;;;;;;;;;23.18;51.07;101273.34;5047135;28;20008;-79
2023/07/19 10:46:28;;;;;;;;;;;;;;;23.17;50.86;101272.50;5047785;28;19917;-78
2023/07/19 10:48:53;;;;;;;;;;;;;;;23.18;51.09;101270.63;5032655;28;19921;-78
2023/07/19 10:51:20;;;;;;;;;;;;;;;23.18;50.80;101274.19;5049356;28;20401;-78
2023/07/19 10:53:50;;;;;;;;;;;;;;;23.18;50.76;101274.19;5080972;28;21029;-78
2023/07/19 10:56:15;;;;;;;;;;;;;;;23.18;51.07;101276.91;5080524;28;19917;-76
2023/07/19 10:58:41;;;;;;;;;;;;;;;23.18;51.16;101274.19;5047566;28;20356;-76
2023/07/19 11:01:06;;;;;;;;;;;;;;;23.20;50.95;101274.03;5049564;28;19917;-77
2023/07/19 11:03:32;;;;;;;;;;;;;;;23.19;51.10;101278.59;5046548;28;19925;-77
2023/07/19 11:05:58;;;;;;;;;;;;;;;23.20;50.99;101282.16;5060810;28;19932;-76
2023/07/19 11:08:24;;;;;;;;;;;;;;;23.20;50.96;101279.44;5061306;28;19970;-77
2023/07/19 11:10:50;;;;;;;;;;;;;;;23.20;51.07;101280.28;5035823;28;19952;-76
2023/07/19 11:13:16;;;;;;;;;;;;;;;23.21;50.92;101278.41;5045423;28;19921;-75
2023/07/19 11:15:42;;;;;;;;;;;;;;;23.23;50.91;101272.78;5043168;28;19921;-75
2023/07/19 11:18:07;;;;;;;;;;;;;;;23.24;50.98;101274.50;5047049;28;19921;-75
2023/07/19 11:20:35;;;;;;;;;;;;;;;23.24;51.07;101282.63;5049420;28;20398;-75
2023/07/19 11:23:05;;;;;;;;;;;;;;;23.24;51.16;101278.03;5079676;28;19919;-75
2023/07/19 11:25:30;;;;;;;;;;;;;;;23.24;51.17;101272.63;5047400;28;19990;-75
2023/07/19 11:27:55;;;;;;;;;;;;;;;23.24;50.99;101280.75;5050091;28;20434;-75
2023/07/19 11:30:23;;;;;;;;;;;;;;;23.24;51.13;101277.22;5047102;28;19932;-75
2023/07/19 11:33:00;;;;;;;;;;;;;;;23.24;51.25;101280.75;5064552;28;19917;-76
2023/07/19 11:35:26;;;;;;;;;;;;;;;23.24;50.94;101282.63;5052645;28;19917;-76
2023/07/19 11:37:51;;;;;;;;;;;;;;;23.24;51.13;101282.63;5048666;28;19921;-75
2023/07/19 11:40:16;;;;;;;;;;;;;;;23.23;51.04;101278.22;5051876;28;19920;-75
2023/07/19 11:42:45;;;;;;;;;;;;;;;23.22;51.11;101269.22;5051245;28;19921;-75
2023/07/19 11:45:12;;;;;;;;;;;;;;;23.23;51.28;101262.78;5051588;28;19917;-75
2023/07/19 11:47:37;;;;;;;;;;;;;;;23.25;50.78;101263.44;5034765;28;19917;-72
2023/07/19 11:50:03;;;;;;;;;;;;;;;23.27;51.12;101255.09;5049971;28;20405;-78
2023/07/19 11:52:28;;;;;;;;;;;;;;;23.29;50.88;101259.31;5052314;28;19920;-76
2023/07/19 11:54:55;;;;;;;;;;;;;;;23.31;51.05;101256.41;5079522;28;19917;-75
2023/07/19 11:57:20;;;;;;;;;;;;;;;23.32;50.68;101263.50;5052579;28;19923;-71
2023/07/19 11:59:48;;;;;;;;;;;;;;;23.31;50.74;101259.97;5048870;28;19925;-80
2023/07/19 12:02:13;;;;;;;;;;;;;;;23.32;50.95;101264.38;5077146;28;19952;-74
2023/07/19 12:04:38;;;;;;;;;;;;;;;23.33;50.99;101267.94;5046940;28;19924;-74
2023/07/19 12:07:04;;;;;;;;;;;;;;;23.32;51.13;101272.50;5050175;28;19921;-74
2023/07/19 12:09:29;;;;;;;;;;;;;;;23.32;51.23;101267.09;5078328;28;19921;-74
2023/07/19 12:11:54;;;;;;;;;;;;;;;23.33;51.14;101260.63;5048220;28;19921;-74
2023/07/19 12:14:19;;;;;;;;;;;;;;;23.33;51.26;101265.22;5052789;28;19962;-73
2023/07/19 12:16:44;;;;;;;;;;;;;;;23.34;51.08;101266.88;5050825;28;19921;-72
2023/07/19 12:19:11;;;;;;;;;;;;;;;23.34;51.19;101253.31;5045268;28;19991;-74
2023/07/19 12:21:37;;;;;;;;;;;;;;;23.34;51.23;101254.16;5081822;28;19924;-74
2023/07/19 12:24:03;;;;;;;;;;;;;;;23.35;51.15;101255.84;5051823;28;20003;-73
2023/07/19 12:26:31;;;;;;;;;;;;;;;23.38;51.22;101260.06;5046874;28;19932;-74